sensor_id;sensor_type;location;lat;lon;timestamp;temperature;humidity
63976;DHT22;50167;47.958;21.780;2023-12-04T00:01:53;4.35;60.34
63976;DHT22;50167;47.958;21.780;2023-12-04T00:04:20;4.14;60.18
63976;DHT22;50167;47.958;21.780;2023-12-04T00:06:48;3.98;61.00
63976;DHT22;50167;47.958;21.780;2023-12-04T00:09:14;3.84;61.64
63976;DHT22;50167;47.958;21.780;2023-12-04T00:11:40;3.69;62.02
63976;DHT22;50167;47.958;21.780;2023-12-04T00:14:06;3.60;62.92
63976;DHT22;50167;47.958;21.780;2023-12-04T00:16:34;3.55;63.32
63976;DHT22;50167;47.958;21.780;2023-12-04T00:19:03;3.45;63.59
63976;DHT22;50167;47.958;21.780;2023-12-04T00:21:29;3.39;63.70
63976;DHT22;50167;47.958;21.780;2023-12-04T00:23:56;3.28;64.07
63976;DHT22;50167;47.958;21.780;2023-12-04T00:26:22;3.18;64.32
63976;DHT22;50167;47.958;21.780;2023-12-04T00:28:48;3.12;64.68
63976;DHT22;50167;47.958;21.780;2023-12-04T00:31:15;3.08;64.88
63976;DHT22;50167;47.958;21.780;2023-12-04T00:33:41;3.08;65.26
63976;DHT22;50167;47.958;21.780;2023-12-04T00:36:09;3.57;68.00
63976;DHT22;50167;47.958;21.780;2023-12-04T00:38:35;4.77;66.43
63976;DHT22;50167;47.958;21.780;2023-12-04T00:41:01;4.90;62.39
63976;DHT22;50167;47.958;21.780;2023-12-04T00:43:27;4.76;61.73
63976;DHT22;50167;47.958;21.780;2023-12-04T00:45:54;4.86;62.71
63976;DHT22;50167;47.958;21.780;2023-12-04T00:48:20;5.26;62.56
63976;DHT22;50167;47.958;21.780;2023-12-04T00:50:46;5.66;61.12
63976;DHT22;50167;47.958;21.780;2023-12-04T00:53:13;5.79;59.87
63976;DHT22;50167;47.958;21.780;2023-12-04T00:55:39;5.86;58.49
63976;DHT22;50167;47.958;21.780;2023-12-04T00:58:05;5.03;56.69
63976;DHT22;50167;47.958;21.780;2023-12-04T01:00:32;4.91;59.78
63976;DHT22;50167;47.958;21.780;2023-12-04T01:02:58;5.28;60.65
63976;DHT22;50167;47.958;21.780;2023-12-04T01:05:24;5.08;57.47
63976;DHT22;50167;47.958;21.780;2023-12-04T01:07:50;4.64;58.67
63976;DHT22;50167;47.958;21.780;2023-12-04T01:10:17;4.57;59.32
63976;DHT22;50167;47.958;21.780;2023-12-04T01:12:44;4.64;59.28
63976;DHT22;50167;47.958;21.780;2023-12-04T01:15:10;4.49;59.40
63976;DHT22;50167;47.958;21.780;2023-12-04T01:17:36;4.51;60.44
63976;DHT22;50167;47.958;21.780;2023-12-04T01:20:02;4.60;60.59
63976;DHT22;50167;47.958;21.780;2023-12-04T01:22:28;4.62;60.72
63976;DHT22;50167;47.958;21.780;2023-12-04T01:24:55;4.62;60.75
63976;DHT22;50167;47.958;21.780;2023-12-04T01:27:21;4.59;60.55
63976;DHT22;50167;47.958;21.780;2023-12-04T01:29:47;4.43;60.69
63976;DHT22;50167;47.958;21.780;2023-12-04T01:32:13;4.46;61.42
63976;DHT22;50167;47.958;21.780;2023-12-04T01:34:39;4.69;61.05
63976;DHT22;50167;47.958;21.780;2023-12-04T01:37:06;4.87;59.71
63976;DHT22;50167;47.958;21.780;2023-12-04T01:39:32;4.87;59.90
63976;DHT22;50167;47.958;21.780;2023-12-04T01:41:58;4.97;60.20
63976;DHT22;50167;47.958;21.780;2023-12-04T01:44:24;5.07;60.25
63976;DHT22;50167;47.958;21.780;2023-12-04T01:46:50;5.29;60.25
63976;DHT22;50167;47.958;21.780;2023-12-04T01:49:17;4.95;58.59
63976;DHT22;50167;47.958;21.780;2023-12-04T01:51:45;4.83;58.98
63976;DHT22;50167;47.958;21.780;2023-12-04T01:54:12;4.33;58.78
63976;DHT22;50167;47.958;21.780;2023-12-04T01:56:39;4.30;61.87
63976;DHT22;50167;47.958;21.780;2023-12-04T01:59:06;4.70;60.94
63976;DHT22;50167;47.958;21.780;2023-12-04T02:01:32;4.63;60.40
63976;DHT22;50167;47.958;21.780;2023-12-04T02:03:59;4.95;61.08
63976;DHT22;50167;47.958;21.780;2023-12-04T02:06:27;5.31;60.06
63976;DHT22;50167;47.958;21.780;2023-12-04T02:08:54;4.90;58.94
63976;DHT22;50167;47.958;21.780;2023-12-04T02:11:20;5.01;59.86
63976;DHT22;50167;47.958;21.780;2023-12-04T02:13:46;5.08;59.39
63976;DHT22;50167;47.958;21.780;2023-12-04T02:16:15;5.05;59.21
63976;DHT22;50167;47.958;21.780;2023-12-04T02:18:43;5.08;58.89
63976;DHT22;50167;47.958;21.780;2023-12-04T02:21:09;4.98;59.52
63976;DHT22;50167;47.958;21.780;2023-12-04T02:23:35;5.31;60.29
63976;DHT22;50167;47.958;21.780;2023-12-04T02:26:15;4.95;57.43
63976;DHT22;50167;47.958;21.780;2023-12-04T02:28:53;5.16;59.97
63976;DHT22;50167;47.958;21.780;2023-12-04T02:31:16;5.01;57.51
63976;DHT22;50167;47.958;21.780;2023-12-04T02:33:45;4.62;58.32
63976;DHT22;50167;47.958;21.780;2023-12-04T02:36:13;4.15;58.58
63976;DHT22;50167;47.958;21.780;2023-12-04T02:38:40;3.71;59.41
63976;DHT22;50167;47.958;21.780;2023-12-04T02:41:07;3.36;60.87
63976;DHT22;50167;47.958;21.780;2023-12-04T02:43:33;3.16;62.13
63976;DHT22;50167;47.958;21.780;2023-12-04T02:46:00;2.97;63.02
63976;DHT22;50167;47.958;21.780;2023-12-04T02:48:26;2.88;63.89
63976;DHT22;50167;47.958;21.780;2023-12-04T02:50:52;3.00;65.53
63976;DHT22;50167;47.958;21.780;2023-12-04T02:53:18;3.84;66.49
63976;DHT22;50167;47.958;21.780;2023-12-04T02:55:44;4.60;65.18
63976;DHT22;50167;47.958;21.780;2023-12-04T02:58:10;4.81;61.66
63976;DHT22;50167;47.958;21.780;2023-12-04T03:00:37;4.60;61.07
63976;DHT22;50167;47.958;21.780;2023-12-04T03:03:03;4.51;61.60
63976;DHT22;50167;47.958;21.780;2023-12-04T03:05:29;4.26;61.40
63976;DHT22;50167;47.958;21.780;2023-12-04T03:07:55;4.46;63.94
63976;DHT22;50167;47.958;21.780;2023-12-04T03:10:21;4.70;62.57
63976;DHT22;50167;47.958;21.780;2023-12-04T03:12:48;5.12;63.49
63976;DHT22;50167;47.958;21.780;2023-12-04T03:15:14;5.66;61.89
63976;DHT22;50167;47.958;21.780;2023-12-04T03:17:40;5.93;60.54
63976;DHT22;50167;47.958;21.780;2023-12-04T03:20:07;6.12;59.09
63976;DHT22;50167;47.958;21.780;2023-12-04T03:22:36;5.50;56.08
63976;DHT22;50167;47.958;21.780;2023-12-04T03:25:03;4.77;59.66
63976;DHT22;50167;47.958;21.780;2023-12-04T03:27:30;4.86;60.54
63976;DHT22;50167;47.958;21.780;2023-12-04T03:29:56;4.70;60.82
63976;DHT22;50167;47.958;21.780;2023-12-04T03:32:22;5.01;62.44
63976;DHT22;50167;47.958;21.780;2023-12-04T03:34:48;5.11;60.35
63976;DHT22;50167;47.958;21.780;2023-12-04T03:37:14;5.36;60.83
63976;DHT22;50167;47.958;21.780;2023-12-04T03:39:41;5.03;58.53
63976;DHT22;50167;47.958;21.780;2023-12-04T03:42:07;4.37;59.55
63976;DHT22;50167;47.958;21.780;2023-12-04T03:44:33;4.00;61.24
63976;DHT22;50167;47.958;21.780;2023-12-04T03:46:59;3.81;63.07
63976;DHT22;50167;47.958;21.780;2023-12-04T03:49:25;4.12;63.42
63976;DHT22;50167;47.958;21.780;2023-12-04T03:51:52;4.09;63.33
63976;DHT22;50167;47.958;21.780;2023-12-04T03:54:18;4.55;64.17
63976;DHT22;50167;47.958;21.780;2023-12-04T03:56:44;4.84;62.70
63976;DHT22;50167;47.958;21.780;2023-12-04T03:59:10;5.10;62.49
63976;DHT22;50167;47.958;21.780;2023-12-04T04:01:36;5.14;61.54
63976;DHT22;50167;47.958;21.780;2023-12-04T04:04:03;5.24;61.80
63976;DHT22;50167;47.958;21.780;2023-12-04T04:06:29;5.35;60.63
63976;DHT22;50167;47.958;21.780;2023-12-04T04:08:55;5.22;59.85
63976;DHT22;50167;47.958;21.780;2023-12-04T04:11:21;4.97;61.11
63976;DHT22;50167;47.958;21.780;2023-12-04T04:13:47;4.57;60.22
63976;DHT22;50167;47.958;21.780;2023-12-04T04:16:15;4.35;62.33
63976;DHT22;50167;47.958;21.780;2023-12-04T04:21:06;4.59;60.99
63976;DHT22;50167;47.958;21.780;2023-12-04T04:23:33;4.24;62.85
63976;DHT22;50167;47.958;21.780;2023-12-04T04:25:59;4.53;62.65
63976;DHT22;50167;47.958;21.780;2023-12-04T04:28:26;4.45;62.16
63976;DHT22;50167;47.958;21.780;2023-12-04T04:30:52;4.18;63.26
63976;DHT22;50167;47.958;21.780;2023-12-04T04:33:18;4.74;63.14
63976;DHT22;50167;47.958;21.780;2023-12-04T04:35:48;5.01;62.73
63976;DHT22;50167;47.958;21.780;2023-12-04T04:38:12;5.54;61.85
63976;DHT22;50167;47.958;21.780;2023-12-04T04:40:38;5.76;60.13
63976;DHT22;50167;47.958;21.780;2023-12-04T04:43:06;5.96;59.41
63976;DHT22;50167;47.958;21.780;2023-12-04T04:45:32;5.43;57.17
63976;DHT22;50167;47.958;21.780;2023-12-04T04:47:58;4.74;60.28
63976;DHT22;50167;47.958;21.780;2023-12-04T04:50:25;5.03;61.13
63976;DHT22;50167;47.958;21.780;2023-12-04T04:52:51;5.21;60.23
63976;DHT22;50167;47.958;21.780;2023-12-04T04:55:17;4.90;59.79
63976;DHT22;50167;47.958;21.780;2023-12-04T04:57:43;4.64;60.18
63976;DHT22;50167;47.958;21.780;2023-12-04T05:00:11;4.91;62.24
63976;DHT22;50167;47.958;21.780;2023-12-04T05:02:37;5.22;60.74
63976;DHT22;50167;47.958;21.780;2023-12-04T05:05:04;5.32;59.96
63976;DHT22;50167;47.958;21.780;2023-12-04T05:07:31;5.33;59.24
63976;DHT22;50167;47.958;21.780;2023-12-04T05:09:57;4.84;57.88
63976;DHT22;50167;47.958;21.780;2023-12-04T05:12:23;4.46;60.01
63976;DHT22;50167;47.958;21.780;2023-12-04T05:14:49;4.51;60.69
63976;DHT22;50167;47.958;21.780;2023-12-04T05:17:15;4.57;60.31
63976;DHT22;50167;47.958;21.780;2023-12-04T05:19:41;4.39;60.39
63976;DHT22;50167;47.958;21.780;2023-12-04T05:22:08;4.21;60.85
63976;DHT22;50167;47.958;21.780;2023-12-04T05:24:34;4.48;61.88
63976;DHT22;50167;47.958;21.780;2023-12-04T05:27:02;4.49;59.75
63976;DHT22;50167;47.958;21.780;2023-12-04T05:29:28;3.96;59.98
63976;DHT22;50167;47.958;21.780;2023-12-04T05:31:55;3.46;61.32
63976;DHT22;50167;47.958;21.780;2023-12-04T05:34:23;2.94;61.50
63976;DHT22;50167;47.958;21.780;2023-12-04T05:36:49;2.66;63.65
63976;DHT22;50167;47.958;21.780;2023-12-04T05:39:16;2.50;63.76
63976;DHT22;50167;47.958;21.780;2023-12-04T05:41:42;3.25;66.79
63976;DHT22;50167;47.958;21.780;2023-12-04T05:44:08;3.80;65.22
63976;DHT22;50167;47.958;21.780;2023-12-04T05:46:34;4.14;62.75
63976;DHT22;50167;47.958;21.780;2023-12-04T05:49:00;4.35;62.65
63976;DHT22;50167;47.958;21.780;2023-12-04T05:51:27;4.16;60.91
63976;DHT22;50167;47.958;21.780;2023-12-04T05:53:53;4.05;61.39
63976;DHT22;50167;47.958;21.780;2023-12-04T05:56:19;4.53;62.05
63976;DHT22;50167;47.958;21.780;2023-12-04T05:58:45;4.63;58.99
63976;DHT22;50167;47.958;21.780;2023-12-04T06:01:12;4.52;60.43
63976;DHT22;50167;47.958;21.780;2023-12-04T06:03:38;4.84;61.23
63976;DHT22;50167;47.958;21.780;2023-12-04T06:06:05;4.84;59.38
63976;DHT22;50167;47.958;21.780;2023-12-04T06:08:31;4.73;59.73
63976;DHT22;50167;47.958;21.780;2023-12-04T06:10:57;4.80;58.98
63976;DHT22;50167;47.958;21.780;2023-12-04T06:13:24;4.81;58.60
63976;DHT22;50167;47.958;21.780;2023-12-04T06:15:50;4.62;58.16
63976;DHT22;50167;47.958;21.780;2023-12-04T06:18:16;4.49;59.30
63976;DHT22;50167;47.958;21.780;2023-12-04T06:20:42;4.39;59.33
63976;DHT22;50167;47.958;21.780;2023-12-04T06:23:09;4.22;58.66
63976;DHT22;50167;47.958;21.780;2023-12-04T06:25:36;3.80;59.00
63976;DHT22;50167;47.958;21.780;2023-12-04T06:28:05;4.14;60.94
63976;DHT22;50167;47.958;21.780;2023-12-04T06:30:32;4.56;60.64
63976;DHT22;50167;47.958;21.780;2023-12-04T06:32:58;4.83;58.72
63976;DHT22;50167;47.958;21.780;2023-12-04T06:35:25;4.80;57.58
63976;DHT22;50167;47.958;21.780;2023-12-04T06:37:54;4.63;57.52
63976;DHT22;50167;47.958;21.780;2023-12-04T06:40:22;4.67;57.35
63976;DHT22;50167;47.958;21.780;2023-12-04T06:42:49;4.49;57.37
63976;DHT22;50167;47.958;21.780;2023-12-04T06:45:16;4.42;57.99
63976;DHT22;50167;47.958;21.780;2023-12-04T06:47:43;4.36;57.88
63976;DHT22;50167;47.958;21.780;2023-12-04T06:50:11;4.25;57.56
63976;DHT22;50167;47.958;21.780;2023-12-04T06:52:38;4.01;57.06
63976;DHT22;50167;47.958;21.780;2023-12-04T06:55:05;4.25;59.95
63976;DHT22;50167;47.958;21.780;2023-12-04T06:57:31;5.04;59.11
63976;DHT22;50167;47.958;21.780;2023-12-04T06:59:57;5.26;55.30
63976;DHT22;50167;47.958;21.780;2023-12-04T07:02:23;4.86;56.15
63976;DHT22;50167;47.958;21.780;2023-12-04T07:04:50;5.14;56.23
63976;DHT22;50167;47.958;21.780;2023-12-04T07:07:16;5.04;54.39
63976;DHT22;50167;47.958;21.780;2023-12-04T07:09:42;5.00;55.88
63976;DHT22;50167;47.958;21.780;2023-12-04T07:12:08;5.15;55.39
63976;DHT22;50167;47.958;21.780;2023-12-04T07:14:35;5.18;54.50
63976;DHT22;50167;47.958;21.780;2023-12-04T07:17:01;5.25;55.27
63976;DHT22;50167;47.958;21.780;2023-12-04T07:19:27;4.90;53.92
63976;DHT22;50167;47.958;21.780;2023-12-04T07:21:53;4.95;55.90
63976;DHT22;50167;47.958;21.780;2023-12-04T07:24:19;5.19;55.54
63976;DHT22;50167;47.958;21.780;2023-12-04T07:26:46;4.95;53.71
63976;DHT22;50167;47.958;21.780;2023-12-04T07:29:12;4.57;55.06
63976;DHT22;50167;47.958;21.780;2023-12-04T07:31:38;4.57;56.13
63976;DHT22;50167;47.958;21.780;2023-12-04T07:34:07;4.86;56.23
63976;DHT22;50167;47.958;21.780;2023-12-04T07:36:33;4.94;55.28
63976;DHT22;50167;47.958;21.780;2023-12-04T07:38:59;4.98;54.76
63976;DHT22;50167;47.958;21.780;2023-12-04T07:41:25;4.90;54.90
63976;DHT22;50167;47.958;21.780;2023-12-04T07:43:51;4.74;55.38
63976;DHT22;50167;47.958;21.780;2023-12-04T07:46:17;4.76;55.35
63976;DHT22;50167;47.958;21.780;2023-12-04T07:48:44;4.79;54.24
63976;DHT22;50167;47.958;21.780;2023-12-04T07:51:11;4.57;54.38
63976;DHT22;50167;47.958;21.780;2023-12-04T07:53:37;4.18;54.14
63976;DHT22;50167;47.958;21.780;2023-12-04T07:56:05;4.08;55.72
63976;DHT22;50167;47.958;21.780;2023-12-04T07:58:31;3.70;55.77
63976;DHT22;50167;47.958;21.780;2023-12-04T08:00:58;3.29;57.18
63976;DHT22;50167;47.958;21.780;2023-12-04T08:03:24;3.42;58.63
63976;DHT22;50167;47.958;21.780;2023-12-04T08:05:51;3.81;57.83
63976;DHT22;50167;47.958;21.780;2023-12-04T08:08:18;4.15;57.27
63976;DHT22;50167;47.958;21.780;2023-12-04T08:10:44;4.40;57.37
63976;DHT22;50167;47.958;21.780;2023-12-04T08:13:10;5.00;53.98
63976;DHT22;50167;47.958;21.780;2023-12-04T08:15:36;4.97;54.86
63976;DHT22;50167;47.958;21.780;2023-12-04T08:18:02;5.07;53.95
63976;DHT22;50167;47.958;21.780;2023-12-04T08:20:29;5.14;55.54
63976;DHT22;50167;47.958;21.780;2023-12-04T08:22:55;5.28;51.33
63976;DHT22;50167;47.958;21.780;2023-12-04T08:25:22;5.10;53.81
63976;DHT22;50167;47.958;21.780;2023-12-04T08:27:48;5.19;50.86
63976;DHT22;50167;47.958;21.780;2023-12-04T08:30:15;4.72;53.08
63976;DHT22;50167;47.958;21.780;2023-12-04T08:32:41;4.52;52.72
63976;DHT22;50167;47.958;21.780;2023-12-04T08:35:08;5.10;55.45
63976;DHT22;50167;47.958;21.780;2023-12-04T08:37:34;5.31;50.65
63976;DHT22;50167;47.958;21.780;2023-12-04T08:40:00;5.00;52.88
63976;DHT22;50167;47.958;21.780;2023-12-04T08:42:26;5.22;50.38
63976;DHT22;50167;47.958;21.780;2023-12-04T08:44:52;4.95;53.68
63976;DHT22;50167;47.958;21.780;2023-12-04T08:47:19;5.28;51.24
63976;DHT22;50167;47.958;21.780;2023-12-04T08:49:45;4.88;54.18
63976;DHT22;50167;47.958;21.780;2023-12-04T08:52:12;5.41;51.26
63976;DHT22;50167;47.958;21.780;2023-12-04T08:54:39;4.84;52.50
63976;DHT22;50167;47.958;21.780;2023-12-04T08:57:08;5.29;53.53
63976;DHT22;50167;47.958;21.780;2023-12-04T08:59:35;5.10;51.44
63976;DHT22;50167;47.958;21.780;2023-12-04T09:02:01;5.24;52.71
63976;DHT22;50167;47.958;21.780;2023-12-04T09:04:31;5.11;50.50
63976;DHT22;50167;47.958;21.780;2023-12-04T09:06:58;5.11;54.12
63976;DHT22;50167;47.958;21.780;2023-12-04T09:09:24;5.18;50.58
63976;DHT22;50167;47.958;21.780;2023-12-04T09:11:50;5.19;52.70
63976;DHT22;50167;47.958;21.780;2023-12-04T09:14:17;5.14;50.99
63976;DHT22;50167;47.958;21.780;2023-12-04T09:16:43;5.10;52.40
63976;DHT22;50167;47.958;21.780;2023-12-04T09:19:09;5.18;49.95
63976;DHT22;50167;47.958;21.780;2023-12-04T09:21:36;5.16;50.76
63976;DHT22;50167;47.958;21.780;2023-12-04T09:24:03;5.16;48.99
63976;DHT22;50167;47.958;21.780;2023-12-04T09:26:29;5.14;51.34
63976;DHT22;50167;47.958;21.780;2023-12-04T09:28:56;5.10;49.24
63976;DHT22;50167;47.958;21.780;2023-12-04T09:31:22;4.56;53.97
63976;DHT22;50167;47.958;21.780;2023-12-04T09:33:48;4.48;52.74
63976;DHT22;50167;47.958;21.780;2023-12-04T09:36:14;5.25;55.87
63976;DHT22;50167;47.958;21.780;2023-12-04T09:38:40;5.89;47.17
63976;DHT22;50167;47.958;21.780;2023-12-04T09:41:09;5.96;48.90
63976;DHT22;50167;47.958;21.780;2023-12-04T09:43:36;6.25;48.48
63976;DHT22;50167;47.958;21.780;2023-12-04T09:46:04;6.70;50.45
63976;DHT22;50167;47.958;21.780;2023-12-04T09:48:31;7.06;46.68
63976;DHT22;50167;47.958;21.780;2023-12-04T09:50:59;7.45;43.00
63976;DHT22;50167;47.958;21.780;2023-12-04T09:53:27;7.66;42.69
63976;DHT22;50167;47.958;21.780;2023-12-04T09:55:56;7.73;44.59
63976;DHT22;50167;47.958;21.780;2023-12-04T09:58:27;7.80;43.88
63976;DHT22;50167;47.958;21.780;2023-12-04T10:00:55;8.05;43.14
63976;DHT22;50167;47.958;21.780;2023-12-04T10:03:22;8.59;40.45
63976;DHT22;50167;47.958;21.780;2023-12-04T10:05:49;8.64;40.50
63976;DHT22;50167;47.958;21.780;2023-12-04T10:08:15;8.66;43.52
63976;DHT22;50167;47.958;21.780;2023-12-04T10:10:43;8.66;40.50
63976;DHT22;50167;47.958;21.780;2023-12-04T10:13:10;8.79;43.46
63976;DHT22;50167;47.958;21.780;2023-12-04T10:15:48;9.17;40.31
63976;DHT22;50167;47.958;21.780;2023-12-04T10:18:31;8.96;41.11
63976;DHT22;50167;47.958;21.780;2023-12-04T10:20:58;8.41;40.32
63976;DHT22;50167;47.958;21.780;2023-12-04T10:23:43;8.00;43.33
63976;DHT22;50167;47.958;21.780;2023-12-04T10:26:09;7.93;42.15
63976;DHT22;50167;47.958;21.780;2023-12-04T10:28:36;7.87;41.59
63976;DHT22;50167;47.958;21.780;2023-12-04T10:31:03;7.87;42.98
63976;DHT22;50167;47.958;21.780;2023-12-04T10:33:31;8.28;41.47
63976;DHT22;50167;47.958;21.780;2023-12-04T10:35:57;8.18;41.91
63976;DHT22;50167;47.958;21.780;2023-12-04T10:38:24;8.04;43.50
63976;DHT22;50167;47.958;21.780;2023-12-04T10:40:52;8.04;42.76
63976;DHT22;50167;47.958;21.780;2023-12-04T10:43:21;8.11;41.34
63976;DHT22;50167;47.958;21.780;2023-12-04T10:45:49;8.15;41.96
63976;DHT22;50167;47.958;21.780;2023-12-04T10:48:18;7.87;44.76
63976;DHT22;50167;47.958;21.780;2023-12-04T10:50:48;7.42;45.62
63976;DHT22;50167;47.958;21.780;2023-12-04T10:53:16;7.17;44.62
63976;DHT22;50167;47.958;21.780;2023-12-04T10:55:44;7.19;45.22
63976;DHT22;50167;47.958;21.780;2023-12-04T10:58:13;6.97;44.34
63976;DHT22;50167;47.958;21.780;2023-12-04T11:00:48;6.48;45.59
63976;DHT22;50167;47.958;21.780;2023-12-04T11:03:36;6.17;46.69
63976;DHT22;50167;47.958;21.780;2023-12-04T11:06:05;5.62;47.17
63976;DHT22;50167;47.958;21.780;2023-12-04T11:08:34;5.14;49.20
63976;DHT22;50167;47.958;21.780;2023-12-04T11:11:06;5.77;47.58
63976;DHT22;50167;47.958;21.780;2023-12-04T11:13:42;5.16;48.76
63976;DHT22;50167;47.958;21.780;2023-12-04T11:18:51;5.16;48.95
63976;DHT22;50167;47.958;21.780;2023-12-04T11:21:20;5.67;48.90
63976;DHT22;50167;47.958;21.780;2023-12-04T11:23:48;5.22;47.74
63976;DHT22;50167;47.958;21.780;2023-12-04T11:26:15;4.97;50.51
63976;DHT22;50167;47.958;21.780;2023-12-04T11:28:42;5.24;48.01
63976;DHT22;50167;47.958;21.780;2023-12-04T11:31:09;4.57;49.75
63976;DHT22;50167;47.958;21.780;2023-12-04T11:33:37;4.97;50.57
63976;DHT22;50167;47.958;21.780;2023-12-04T11:36:09;5.49;47.84
63976;DHT22;50167;47.958;21.780;2023-12-04T11:38:38;5.00;50.53
63976;DHT22;50167;47.958;21.780;2023-12-04T11:41:21;5.49;48.61
63976;DHT22;50167;47.958;21.780;2023-12-04T11:43:48;4.97;49.92
63976;DHT22;50167;47.958;21.780;2023-12-04T11:46:20;5.33;48.39
63976;DHT22;50167;47.958;21.780;2023-12-04T11:48:53;4.77;50.00
63976;DHT22;50167;47.958;21.780;2023-12-04T11:54:10;4.84;51.30
63976;DHT22;50167;47.958;21.780;2023-12-04T11:56:43;5.16;50.82
63976;DHT22;50167;47.958;21.780;2023-12-04T11:59:07;5.07;49.72
63976;DHT22;50167;47.958;21.780;2023-12-04T12:01:36;4.69;50.97
63976;DHT22;50167;47.958;21.780;2023-12-04T12:04:06;5.32;52.85
63976;DHT22;50167;47.958;21.780;2023-12-04T12:06:33;4.98;49.18
63976;DHT22;50167;47.958;21.780;2023-12-04T12:08:59;4.15;51.36
63976;DHT22;50167;47.958;21.780;2023-12-04T12:11:26;3.91;52.35
63976;DHT22;50167;47.958;21.780;2023-12-04T12:13:55;3.70;52.92
63976;DHT22;50167;47.958;21.780;2023-12-04T12:16:21;3.53;53.76
63976;DHT22;50167;47.958;21.780;2023-12-04T12:18:47;3.41;54.05
63976;DHT22;50167;47.958;21.780;2023-12-04T12:21:14;3.22;54.16
63976;DHT22;50167;47.958;21.780;2023-12-04T12:23:41;3.09;54.74
63976;DHT22;50167;47.958;21.780;2023-12-04T12:26:10;3.04;54.86
63976;DHT22;50167;47.958;21.780;2023-12-04T12:28:37;3.00;55.25
63976;DHT22;50167;47.958;21.780;2023-12-04T12:31:04;3.00;56.52
63976;DHT22;50167;47.958;21.780;2023-12-04T12:33:30;2.98;55.78
63976;DHT22;50167;47.958;21.780;2023-12-04T12:35:58;2.94;56.11
63976;DHT22;50167;47.958;21.780;2023-12-04T12:38:25;3.00;57.38
63976;DHT22;50167;47.958;21.780;2023-12-04T12:40:51;4.26;57.63
63976;DHT22;50167;47.958;21.780;2023-12-04T12:43:20;4.24;53.92
63976;DHT22;50167;47.958;21.780;2023-12-04T12:45:48;3.63;54.31
63976;DHT22;50167;47.958;21.780;2023-12-04T12:48:16;3.39;54.64
63976;DHT22;50167;47.958;21.780;2023-12-04T12:50:44;3.46;55.74
63976;DHT22;50167;47.958;21.780;2023-12-04T12:53:11;3.88;55.77
63976;DHT22;50167;47.958;21.780;2023-12-04T12:55:42;4.72;54.32
63976;DHT22;50167;47.958;21.780;2023-12-04T12:58:11;5.14;53.86
63976;DHT22;50167;47.958;21.780;2023-12-04T13:00:47;4.97;51.26
63976;DHT22;50167;47.958;21.780;2023-12-04T13:03:16;5.32;52.69
63976;DHT22;50167;47.958;21.780;2023-12-04T13:05:43;4.95;50.78
63976;DHT22;50167;47.958;21.780;2023-12-04T13:08:10;5.25;53.45
63976;DHT22;50167;47.958;21.780;2023-12-04T13:10:37;5.31;49.82
63976;DHT22;50167;47.958;21.780;2023-12-04T13:13:08;4.93;52.31
63976;DHT22;50167;47.958;21.780;2023-12-04T13:15:32;5.32;51.00
63976;DHT22;50167;47.958;21.780;2023-12-04T13:17:58;4.94;52.06
63976;DHT22;50167;47.958;21.780;2023-12-04T13:20:24;5.39;52.10
63976;DHT22;50167;47.958;21.780;2023-12-04T13:22:50;4.87;50.20
63976;DHT22;50167;47.958;21.780;2023-12-04T13:25:17;4.97;52.75
63976;DHT22;50167;47.958;21.780;2023-12-04T13:27:44;5.29;50.64
63976;DHT22;50167;47.958;21.780;2023-12-04T13:30:11;4.95;51.77
63976;DHT22;50167;47.958;21.780;2023-12-04T13:32:38;5.28;51.87
63976;DHT22;50167;47.958;21.780;2023-12-04T13:35:05;5.00;50.10
63976;DHT22;50167;47.958;21.780;2023-12-04T13:37:33;5.14;52.22
63976;DHT22;50167;47.958;21.780;2023-12-04T13:39:59;5.08;50.42
63976;DHT22;50167;47.958;21.780;2023-12-04T13:42:27;5.18;52.57
63976;DHT22;50167;47.958;21.780;2023-12-04T13:45:12;5.00;50.17
63976;DHT22;50167;47.958;21.780;2023-12-04T13:47:39;5.11;52.43
63976;DHT22;50167;47.958;21.780;2023-12-04T13:50:07;5.21;50.22
63976;DHT22;50167;47.958;21.780;2023-12-04T13:52:36;4.95;52.05
63976;DHT22;50167;47.958;21.780;2023-12-04T13:55:02;5.35;51.62
63976;DHT22;50167;47.958;21.780;2023-12-04T13:57:30;4.80;51.39
63976;DHT22;50167;47.958;21.780;2023-12-04T14:00:01;5.16;52.90
63976;DHT22;50167;47.958;21.780;2023-12-04T14:02:29;5.04;50.23
63976;DHT22;50167;47.958;21.780;2023-12-04T14:04:55;5.18;52.62
63976;DHT22;50167;47.958;21.780;2023-12-04T14:07:21;5.07;50.24
63976;DHT22;50167;47.958;21.780;2023-12-04T14:09:49;5.05;52.31
63976;DHT22;50167;47.958;21.780;2023-12-04T14:12:15;5.24;50.72
63976;DHT22;50167;47.958;21.780;2023-12-04T14:14:42;5.18;52.90
63976;DHT22;50167;47.958;21.780;2023-12-04T14:17:08;5.08;50.27
63976;DHT22;50167;47.958;21.780;2023-12-04T14:19:35;5.12;52.95
63976;DHT22;50167;47.958;21.780;2023-12-04T14:22:01;5.10;50.35
63976;DHT22;50167;47.958;21.780;2023-12-04T14:24:27;4.91;52.85
63976;DHT22;50167;47.958;21.780;2023-12-04T14:26:56;5.25;52.49
63976;DHT22;50167;47.958;21.780;2023-12-04T14:29:22;4.95;50.03
63976;DHT22;50167;47.958;21.780;2023-12-04T14:31:48;5.18;53.28
63976;DHT22;50167;47.958;21.780;2023-12-04T14:34:14;5.12;50.16
63976;DHT22;50167;47.958;21.780;2023-12-04T14:36:40;5.08;52.57
63976;DHT22;50167;47.958;21.780;2023-12-04T14:39:06;5.22;50.96
63976;DHT22;50167;47.958;21.780;2023-12-04T14:41:36;5.00;52.37
63976;DHT22;50167;47.958;21.780;2023-12-04T14:44:02;5.29;51.80
63976;DHT22;50167;47.958;21.780;2023-12-04T14:46:29;4.80;50.91
63976;DHT22;50167;47.958;21.780;2023-12-04T14:48:55;4.94;52.76
63976;DHT22;50167;47.958;21.780;2023-12-04T14:51:21;5.32;53.06
63976;DHT22;50167;47.958;21.780;2023-12-04T14:53:47;4.87;50.74
63976;DHT22;50167;47.958;21.780;2023-12-04T14:56:19;4.80;53.10
63976;DHT22;50167;47.958;21.780;2023-12-04T14:58:57;5.04;53.74
63976;DHT22;50167;47.958;21.780;2023-12-04T15:01:42;5.29;53.37
63976;DHT22;50167;47.958;21.780;2023-12-04T15:04:17;4.93;51.41
63976;DHT22;50167;47.958;21.780;2023-12-04T15:07:02;5.12;54.18
63976;DHT22;50167;47.958;21.780;2023-12-04T15:09:28;5.07;51.31
63976;DHT22;50167;47.958;21.780;2023-12-04T15:12:15;5.04;53.23
63976;DHT22;50167;47.958;21.780;2023-12-04T15:15:00;5.24;52.72
63976;DHT22;50167;47.958;21.780;2023-12-04T15:17:28;5.03;53.09
63976;DHT22;50167;47.958;21.780;2023-12-04T15:20:03;5.14;52.88
63976;DHT22;50167;47.958;21.780;2023-12-04T15:22:32;4.81;52.28
63976;DHT22;50167;47.958;21.780;2023-12-04T15:24:58;4.62;52.71
63976;DHT22;50167;47.958;21.780;2023-12-04T15:27:25;4.40;53.31
63976;DHT22;50167;47.958;21.780;2023-12-04T15:29:52;4.08;53.50
63976;DHT22;50167;47.958;21.780;2023-12-04T15:32:18;3.80;54.16
63976;DHT22;50167;47.958;21.780;2023-12-04T15:34:44;3.60;55.12
63976;DHT22;50167;47.958;21.780;2023-12-04T15:37:10;3.87;56.49
63976;DHT22;50167;47.958;21.780;2023-12-04T15:39:36;3.98;55.18